| time (UTC) | temp F | wind direction | speed knots | gust knots | rain 1hr in | rain 24hr in | rain mn in | humidity % | barometer mb |
| 20260510033817 | 56 | 137 | 3.5 | 10.4 | 0.00 | 0.33 | 0.33 | 83 | 1006.5 |
| 20260510033319 | 56 | 175 | 3.5 | 9.6 | 0.00 | 0.33 | 0.33 | 83 | 1006.5 |
| 20260510032817 | 56 | 195 | 4.3 | 9.6 | 0.00 | 0.33 | 0.33 | 83 | 1006.3 |
| 20260510032320 | 56 | 170 | 4.3 | 9.6 | 0.00 | 0.33 | 0.33 | 83 | 1006.4 |
| 20260510031830 | 56 | 189 | 2.6 | 7.8 | 0.00 | 0.33 | 0.33 | 82 | 1006.4 |
| 20260510031315 | 56 | 142 | 3.5 | 9.6 | 0.00 | 0.33 | 0.33 | 82 | 1006.3 |
| 20260510030828 | 56 | 140 | 3.5 | 8.7 | 0.00 | 0.33 | 0.33 | 82 | 1006.3 |
| 20260510030353 | 56 | 159 | 2.6 | 7.0 | 0.00 | 0.33 | 0.33 | 83 | 1006.4 |
| 20260510025823 | 56 | 184 | 1.7 | 7.8 | 0.00 | 0.33 | 0.33 | 83 | 1006.5 |
| 20260510025327 | 56 | 184 | 4.3 | 9.6 | 0.00 | 0.33 | 0.33 | 83 | 1006.6 |
| 20260510024822 | 56 | 198 | 5.2 | 9.6 | 0.00 | 0.33 | 0.33 | 83 | 1006.5 |
| 20260510024325 | 56 | 148 | 3.5 | 10.4 | 0.00 | 0.33 | 0.33 | 83 | 1006.5 |
| 20260510023819 | 56 | 149 | 4.3 | 10.4 | 0.00 | 0.33 | 0.33 | 83 | 1006.5 |
| 20260510023319 | 56 | 184 | 3.5 | 9.6 | 0.00 | 0.33 | 0.33 | 83 | 1006.4 |
| 20260510022838 | 56 | 177 | 3.5 | 8.7 | 0.00 | 0.33 | 0.33 | 83 | 1006.5 |
| 20260510022318 | 56 | 183 | 3.5 | 10.4 | 0.00 | 0.33 | 0.33 | 82 | 1006.4 |
| 20260510021853 | 56 | 180 | 5.2 | 10.4 | 0.00 | 0.33 | 0.33 | 82 | 1006.3 |
| 20260510021315 | 56 | 198 | 4.3 | 13.9 | 0.00 | 0.33 | 0.33 | 82 | 1006.3 |
| 20260510020834 | 56 | 174 | 5.2 | 13.9 | 0.00 | 0.33 | 0.33 | 83 | 1006.3 |
| 20260510020317 | 56 | 167 | 3.5 | 8.7 | 0.00 | 0.33 | 0.33 | 83 | 1006.1 |
| 20260510015815 | 56 | 165 | 2.6 | 9.6 | 0.00 | 0.33 | 0.33 | 83 | 1006.2 |
| 20260510015338 | 55 | 167 | 4.3 | 9.6 | 0.00 | 0.33 | 0.33 | 83 | 1006.2 |
| 20260510014901 | 55 | 157 | 4.3 | 9.6 | 0.00 | 0.33 | 0.33 | 83 | 1006.1 |
| 20260510014338 | 55 | 178 | 4.3 | 12.2 | 0.00 | 0.33 | 0.33 | 84 | 1006.0 |
| 20260510013853 | 55 | 182 | 3.5 | 9.6 | 0.00 | 0.33 | 0.33 | 84 | 1005.9 |
| 20260510013315 | 55 | 169 | 3.5 | 9.6 | 0.00 | 0.33 | 0.33 | 84 | 1005.8 |
| 20260510012814 | 55 | 175 | 3.5 | 9.6 | 0.00 | 0.33 | 0.33 | 85 | 1005.9 |
| 20260510012318 | 55 | 184 | 4.3 | 9.6 | 0.00 | 0.33 | 0.33 | 85 | 1005.7 |
| 20260510011814 | 55 | 146 | 3.5 | 13.9 | 0.00 | 0.33 | 0.33 | 86 | 1005.7 |
| 20260510011318 | 54 | 182 | 5.2 | 13.9 | 0.00 | 0.33 | 0.33 | 86 | 1005.7 |
| 20260510010816 | 54 | 154 | 2.6 | 10.4 | 0.00 | 0.33 | 0.33 | 87 | 1005.7 |
| 20260510010321 | 54 | 178 | 4.3 | 11.3 | 0.01 | 0.33 | 0.33 | 87 | 1005.6 |
| 20260510005832 | 54 | 142 | 3.5 | 10.4 | 0.01 | 0.33 | 0.33 | 87 | 1005.6 |
| 20260510005315 | 54 | 167 | 4.3 | 16.5 | 0.03 | 0.33 | 0.33 | 88 | 1005.6 |
| 20260510004833 | 54 | 165 | 5.2 | 16.5 | 0.05 | 0.33 | 0.33 | 89 | 1005.6 |
| 20260510004318 | 54 | 191 | 3.5 | 10.4 | 0.09 | 0.33 | 0.33 | 89 | 1005.5 |
| 20260510003815 | 53 | 182 | 3.5 | 11.3 | 0.13 | 0.33 | 0.33 | 90 | 1005.5 |
| 20260510003340 | 53 | 141 | 5.2 | 11.3 | 0.15 | 0.33 | 0.33 | 90 | 1005.3 |
| 20260510002832 | 53 | 148 | 3.5 | 13.0 | 0.18 | 0.33 | 0.33 | 91 | 1005.1 |
| 20260510002314 | 53 | 171 | 3.5 | 13.0 | 0.19 | 0.33 | 0.33 | 91 | 1005.0 |
| 20260510001834 | 53 | 154 | 3.5 | 10.4 | 0.21 | 0.33 | 0.33 | 92 | 1005.3 |
| 20260510001317 | 53 | 133 | 4.3 | 10.4 | 0.22 | 0.33 | 0.33 | 92 | 1005.4 |
| 20260510000815 | 52 | 196 | 2.6 | 7.8 | 0.25 | 0.33 | 0.33 | 92 | 1005.2 |
| 20260510000341 | 52 | 188 | 3.5 | 13.9 | 0.26 | 0.32 | 0.32 | 92 | 1005.1 |
| 20260509235853 | 52 | 147 | 5.2 | 13.9 | 0.27 | 0.32 | 0.32 | 92 | 1005.1 |
| 20260509235336 | 52 | 202 | 4.3 | 9.6 | 0.25 | 0.30 | 0.30 | 92 | 1006.0 |
| 20260509234821 | 52 | 198 | 3.5 | 8.7 | 0.25 | 0.28 | 0.28 | 92 | 1006.5 |
| 20260509234324 | 52 | 178 | 2.6 | 6.1 | 0.22 | 0.24 | 0.24 | 92 | 1006.7 |
| 20260509233839 | 52 | 187 | 1.7 | 4.3 | 0.19 | 0.20 | 0.20 | 92 | 1006.7 |
| 20260509233405 | 51 | 202 | 1.7 | 6.1 | 0.17 | 0.17 | 0.17 | 91 | 1006.7 |
| 20260509232832 | 51 | 196 | 2.6 | 7.0 | 0.15 | 0.15 | 0.15 | 91 | 1006.7 |
| 20260509232315 | 51 | 267 | 3.5 | 7.8 | 0.14 | 0.14 | 0.14 | 91 | 1006.7 |
| 20260509231832 | 51 | 229 | 2.6 | 13.0 | 0.12 | 0.12 | 0.12 | 90 | 1006.6 |
| 20260509231318 | 51 | 360 | 4.3 | 13.0 | 0.11 | 0.11 | 0.11 | 89 | 1006.6 |
| 20260509230857 | 51 | 327 | 2.6 | 7.0 | 0.08 | 0.08 | 0.08 | 89 | 1006.6 |
| 20260509230320 | 51 | 292 | 3.5 | 14.8 | 0.06 | 0.06 | 0.06 | 88 | 1006.6 |
| 20260509225832 | 52 | 316 | 5.2 | 14.8 | 0.05 | 0.05 | 0.05 | 87 | 1005.9 |
| 20260509225314 | 53 | 277 | 5.2 | 14.8 | 0.04 | 0.04 | 0.04 | 85 | 1005.5 |
| 20260509224824 | 54 | 355 | 6.1 | 14.8 | 0.03 | 0.03 | 0.03 | 81 | 1005.6 |
| 20260509224323 | 57 | 63 | 3.5 | 9.6 | 0.01 | 0.01 | 0.01 | 78 | 1005.6 |
| 20260509223835 | 59 | 321 | 3.5 | 8.7 | 0.01 | 0.01 | 0.01 | 74 | 1005.5 |
| 20260509223348 | 62 | 248 | 2.6 | 7.0 | 0.00 | 0.00 | 0.00 | 68 | 1004.7 |
| 20260509222824 | 64 | 231 | 1.7 | 6.1 | 0.00 | 0.00 | 0.00 | 63 | 1003.7 |
| 20260509222327 | 66 | 252 | 0.9 | 6.1 | 0.00 | 0.00 | 0.00 | 58 | 1003.4 |
| 20260509221822 | 66 | 224 | 0.9 | 6.1 | 0.00 | 0.00 | 0.00 | 57 | 1003.3 |
| 20260509221324 | 66 | 236 | 2.6 | 6.1 | 0.00 | 0.00 | 0.00 | 56 | 1003.3 |
| 20260509220816 | 67 | 217 | 0.9 | 6.1 | 0.00 | 0.00 | 0.00 | 56 | 1003.2 |
| 20260509220320 | 67 | 177 | 3.5 | 12.2 | 0.00 | 0.00 | 0.00 | 55 | 1003.0 |
| 20260509215821 | 67 | 163 | 3.5 | 12.2 | 0.00 | 0.00 | 0.00 | 55 | 1002.8 |
| 20260509215346 | 67 | 185 | 4.3 | 12.2 | 0.00 | 0.00 | 0.00 | 53 | 1002.9 |
| 20260509214821 | 67 | 223 | 4.3 | 12.2 | 0.00 | 0.00 | 0.00 | 52 | 1002.8 |
| 20260509214322 | 67 | 355 | 2.6 | 9.6 | 0.00 | 0.00 | 0.00 | 54 | 1002.7 |
| 20260509213835 | 68 | 215 | 4.3 | 13.9 | 0.00 | 0.00 | 0.00 | 52 | 1002.8 |
| 20260509213318 | 68 | 232 | 2.6 | 9.6 | 0.00 | 0.00 | 0.00 | 54 | 1002.8 |
| 20260509212832 | 68 | 217 | 2.6 | 10.4 | 0.00 | 0.00 | 0.00 | 53 | 1002.8 |
| 20260509212314 | 68 | 257 | 2.6 | 14.8 | 0.00 | 0.00 | 0.00 | 53 | 1002.9 |
| 20260509211829 | 68 | 211 | 2.6 | 10.4 | 0.00 | 0.00 | 0.00 | 54 | 1003.0 |
| 20260509211333 | 68 | 197 | 3.5 | 13.0 | 0.00 | 0.00 | 0.00 | 54 | 1002.8 |
| 20260509210828 | 68 | 227 | 4.3 | 13.0 | 0.00 | 0.00 | 0.00 | 53 | 1002.9 |
| 20260509210328 | 67 | 165 | 3.5 | 13.9 | 0.00 | 0.00 | 0.00 | 56 | 1002.9 |
| 20260509205839 | 68 | 181 | 4.3 | 13.9 | 0.00 | 0.00 | 0.00 | 55 | 1003.1 |
| 20260509205321 | 68 | 246 | 3.5 | 15.6 | 0.00 | 0.00 | 0.00 | 55 | 1003.1 |
| 20260509204817 | 68 | 170 | 6.1 | 15.6 | 0.00 | 0.00 | 0.00 | 53 | 1003.2 |
| 20260509204320 | 68 | 191 | 2.6 | 14.8 | 0.00 | 0.00 | 0.00 | 54 | 1003.2 |
| 20260509203839 | 68 | 142 | 6.1 | 11.3 | 0.00 | 0.00 | 0.00 | 55 | 1003.3 |
| 20260509203341 | 67 | 190 | 2.6 | 10.4 | 0.00 | 0.00 | 0.00 | 56 | 1003.2 |
| 20260509202815 | 67 | 166 | 4.3 | 12.2 | 0.00 | 0.00 | 0.00 | 55 | 1003.4 |
| 20260509202318 | 67 | 167 | 4.3 | 15.6 | 0.00 | 0.00 | 0.00 | 54 | 1003.6 |
| 20260509201814 | 68 | 182 | 3.5 | 15.6 | 0.00 | 0.00 | 0.00 | 53 | 1003.5 |
| 20260509201338 | 68 | 163 | 2.6 | 8.7 | 0.00 | 0.00 | 0.00 | 53 | 1003.7 |
| 20260509200834 | 68 | 261 | 3.5 | 8.7 | 0.00 | 0.00 | 0.00 | 53 | 1003.6 |
| 20260509200315 | 68 | 233 | 3.5 | 13.0 | 0.00 | 0.00 | 0.00 | 54 | 1003.7 |
| 20260509195834 | 68 | 149 | 5.2 | 13.0 | 0.00 | 0.00 | 0.00 | 53 | 1003.6 |
| 20260509195317 | 68 | 190 | 3.5 | 12.2 | 0.00 | 0.00 | 0.00 | 52 | 1003.6 |
| 20260509194815 | 68 | 190 | 5.2 | 12.2 | 0.00 | 0.00 | 0.00 | 52 | 1003.7 |
| 20260509194318 | 67 | 147 | 5.2 | 13.0 | 0.00 | 0.00 | 0.00 | 55 | 1003.8 |
| 20260509193836 | 67 | 190 | 5.2 | 13.0 | 0.00 | 0.00 | 0.00 | 56 | 1003.9 |
| 20260509193317 | 66 | 186 | 4.3 | 10.4 | 0.00 | 0.00 | 0.00 | 55 | 1004.2 |
| 20260509192813 | 66 | 273 | 2.6 | 10.4 | 0.00 | 0.00 | 0.00 | 57 | 1004.0 |
| 20260509192318 | 65 | 278 | 4.3 | 8.7 | 0.00 | 0.00 | 0.00 | 60 | 1004.2 |
| 20260509191817 | 66 | 245 | 2.6 | 12.2 | 0.00 | 0.00 | 0.00 | 63 | 1004.4 |
| 20260509191339 | 67 | 273 | 4.3 | 12.2 | 0.00 | 0.00 | 0.00 | 56 | 1004.5 |
| 20260509190832 | 67 | 254 | 4.3 | 12.2 | 0.00 | 0.00 | 0.00 | 56 | 1004.5 |
| 20260509190315 | 67 | 212 | 6.1 | 13.0 | 0.00 | 0.00 | 0.00 | 55 | 1004.2 |
| 20260509185837 | 67 | 196 | 4.3 | 13.0 | 0.00 | 0.00 | 0.00 | 58 | 1004.5 |
| 20260509185317 | 66 | 223 | 2.6 | 12.2 | 0.00 | 0.00 | 0.00 | 57 | 1004.6 |
| 20260509184830 | 66 | 159 | 4.3 | 10.4 | 0.00 | 0.00 | 0.00 | 58 | 1004.7 |
| 20260509184332 | 66 | 240 | 4.3 | 10.4 | 0.00 | 0.00 | 0.00 | 59 | 1004.8 |
| 20260509183821 | 65 | 189 | 2.6 | 8.7 | 0.00 | 0.00 | 0.00 | 60 | 1005.0 |
| 20260509183324 | 65 | 216 | 3.5 | 9.6 | 0.00 | 0.00 | 0.00 | 59 | 1005.0 |
| 20260509182818 | 65 | 186 | 3.5 | 11.3 | 0.00 | 0.00 | 0.00 | 62 | 1004.7 |
| 20260509182338 | 64 | 159 | 3.5 | 8.7 | 0.00 | 0.00 | 0.00 | 64 | 1004.7 |
| 20260509181814 | 63 | 178 | 4.3 | 9.6 | 0.00 | 0.00 | 0.00 | 67 | 1004.9 |
| 20260509181319 | 62 | 179 | 2.6 | 7.8 | 0.00 | 0.00 | 0.00 | 72 | 1005.1 |
| 20260509180818 | 62 | 227 | 2.6 | 7.8 | 0.00 | 0.00 | 0.00 | 72 | 1005.1 |
| 20260509180342 | 62 | 267 | 0.9 | 6.1 | 0.00 | 0.00 | 0.00 | 71 | 1005.1 |
| 20260509175818 | 62 | 269 | 1.7 | 12.2 | 0.00 | 0.00 | 0.00 | 71 | 1005.3 |
| 20260509175342 | 62 | 263 | 4.3 | 12.2 | 0.00 | 0.00 | 0.00 | 71 | 1005.1 |
| 20260509174814 | 62 | 221 | 3.5 | 7.0 | 0.00 | 0.00 | 0.00 | 70 | 1005.3 |
| 20260509174316 | 61 | 221 | 1.7 | 4.3 | 0.00 | 0.00 | 0.00 | 72 | 1005.2 |
| 20260509173835 | 61 | 252 | 1.7 | 4.3 | 0.00 | 0.00 | 0.00 | 72 | 1005.3 |
| 20260509173401 | 60 | 216 | 2.6 | 4.3 | 0.00 | 0.00 | 0.00 | 74 | 1005.2 |
| 20260509172832 | 60 | 197 | 1.7 | 4.3 | 0.00 | 0.00 | 0.00 | 74 | 1005.3 |
| 20260509172315 | 60 | 243 | 2.6 | 7.8 | 0.00 | 0.00 | 0.00 | 73 | 1005.5 |
| 20260509171831 | 61 | 241 | 3.5 | 7.8 | 0.00 | 0.00 | 0.00 | 73 | 1005.7 |
| 20260509171336 | 61 | 207 | 1.7 | 6.1 | 0.00 | 0.00 | 0.00 | 72 | 1005.8 |
| 20260509170829 | 62 | 237 | 0.9 | 6.1 | 0.00 | 0.00 | 0.00 | 71 | 1005.9 |
| 20260509170333 | 63 | 323 | 2.6 | 10.4 | 0.00 | 0.00 | 0.00 | 69 | 1005.9 |
| 20260509165827 | 62 | 231 | 6.1 | 10.4 | 0.00 | 0.00 | 0.00 | 69 | 1005.9 |
| 20260509165347 | 62 | 231 | 3.5 | 9.6 | 0.00 | 0.00 | 0.00 | 71 | 1005.7 |
| 20260509164816 | 61 | 205 | 3.5 | 8.7 | 0.00 | 0.00 | 0.00 | 72 | 1005.9 |
| 20260509164319 | 61 | 230 | 3.5 | 6.1 | 0.00 | 0.00 | 0.00 | 72 | 1006.0 |
| 20260509163830 | 61 | 273 | 2.6 | 7.0 | 0.00 | 0.00 | 0.00 | 73 | 1006.1 |
| 20260509163332 | 60 | 217 | 2.6 | 8.7 | 0.00 | 0.00 | 0.00 | 72 | 1006.3 |
| 20260509162825 | 60 | 168 | 2.6 | 8.7 | 0.00 | 0.00 | 0.00 | 73 | 1006.3 |
| 20260509162349 | 60 | 245 | 2.6 | 8.7 | 0.00 | 0.00 | 0.00 | 72 | 1006.3 |
| 20260509161822 | 60 | 256 | 2.6 | 8.7 | 0.00 | 0.00 | 0.00 | 74 | 1006.4 |
| 20260509161323 | 60 | 207 | 4.3 | 7.8 | 0.00 | 0.00 | 0.00 | 73 | 1006.4 |
| 20260509160819 | 60 | 209 | 1.7 | 7.8 | 0.00 | 0.00 | 0.00 | 74 | 1006.3 |
| 20260509160318 | 60 | 234 | 2.6 | 9.6 | 0.00 | 0.00 | 0.00 | 74 | 1006.4 |
| 20260509155815 | 60 | 207 | 2.6 | 9.6 | 0.00 | 0.00 | 0.00 | 74 | 1006.3 |
| 20260509155319 | 60 | 208 | 2.6 | 6.1 | 0.00 | 0.00 | 0.00 | 74 | 1006.4 |
| 20260509154854 | 60 | 224 | 2.6 | 6.1 | 0.00 | 0.00 | 0.00 | 72 | 1006.4 |
| 20260509154337 | 60 | 147 | 3.5 | 6.1 | 0.00 | 0.00 | 0.00 | 73 | 1006.4 |
| 20260509153828 | 60 | 225 | 2.6 | 7.8 | 0.00 | 0.00 | 0.00 | 74 | 1006.3 |
| 20260509153332 | 60 | 211 | 2.6 | 7.8 | 0.00 | 0.00 | 0.00 | 75 | 1006.4 |
| 20260509152825 | 59 | 124 | 1.7 | 7.0 | 0.00 | 0.00 | 0.00 | 76 | 1006.3 |
| 20260509152326 | 59 | 161 | 3.5 | 8.7 | 0.00 | 0.00 | 0.00 | 77 | 1006.4 |
| 20260509151821 | 58 | 186 | 4.3 | 10.4 | 0.00 | 0.00 | 0.00 | 77 | 1006.4 |
| 20260509151322 | 58 | 179 | 2.6 | 10.4 | 0.00 | 0.00 | 0.00 | 77 | 1006.4 |
| 20260509150817 | 59 | 215 | 3.5 | 8.7 | 0.00 | 0.00 | 0.00 | 76 | 1006.5 |
| 20260509150321 | 59 | 182 | 4.3 | 8.7 | 0.00 | 0.00 | 0.00 | 77 | 1006.5 |
| 20260509145835 | 59 | 248 | 1.7 | 10.4 | 0.00 | 0.00 | 0.00 | 79 | 1006.5 |
| 20260509145318 | 59 | 192 | 5.2 | 10.4 | 0.00 | 0.00 | 0.00 | 77 | 1006.6 |
| 20260509144833 | 59 | 178 | 2.6 | 8.7 | 0.00 | 0.00 | 0.00 | 78 | 1006.5 |
| 20260509144338 | 58 | 180 | 3.5 | 9.6 | 0.00 | 0.00 | 0.00 | 78 | 1006.5 |
| 20260509143830 | 58 | 182 | 2.6 | 7.8 | 0.00 | 0.00 | 0.00 | 79 | 1006.5 |
| 20260509143314 | 58 | 152 | 3.5 | 9.6 | 0.00 | 0.00 | 0.00 | 79 | 1006.4 |
| 20260509142831 | 57 | 203 | 4.3 | 13.0 | 0.00 | 0.00 | 0.00 | 79 | 1006.4 |
| 20260509142314 | 57 | 178 | 4.3 | 13.0 | 0.00 | 0.00 | 0.00 | 79 | 1006.5 |
| 20260509141828 | 57 | 192 | 2.6 | 7.8 | 0.00 | 0.00 | 0.00 | 80 | 1006.4 |
| 20260509141331 | 57 | 191 | 2.6 | 7.8 | 0.00 | 0.00 | 0.00 | 81 | 1006.4 |
| 20260509140844 | 57 | 200 | 3.5 | 7.8 | 0.00 | 0.00 | 0.00 | 80 | 1006.4 |
| 20260509140325 | 57 | 200 | 2.6 | 5.2 | 0.00 | 0.00 | 0.00 | 80 | 1006.4 |
| 20260509135817 | 56 | 197 | 2.6 | 6.1 | 0.00 | 0.00 | 0.00 | 81 | 1006.4 |
| 20260509135340 | 56 | 219 | 2.6 | 10.4 | 0.00 | 0.00 | 0.00 | 81 | 1006.5 |
| 20260509134814 | 56 | 181 | 3.5 | 13.0 | 0.00 | 0.00 | 0.00 | 81 | 1006.4 |
| 20260509134337 | 56 | 154 | 4.3 | 10.4 | 0.00 | 0.00 | 0.00 | 80 | 1006.4 |
| 20260509133828 | 56 | 142 | 4.3 | 10.4 | 0.00 | 0.00 | 0.00 | 80 | 1006.4 |
| 20260509133332 | 56 | 109 | 1.7 | 7.8 | 0.00 | 0.00 | 0.00 | 82 | 1006.5 |
| 20260509132824 | 56 | 201 | 5.2 | 7.8 | 0.00 | 0.00 | 0.00 | 81 | 1006.6 |
| 20260509132343 | 56 | 153 | 2.6 | 8.7 | 0.00 | 0.00 | 0.00 | 82 | 1006.6 |
| 20260509131820 | 56 | 165 | 4.3 | 8.7 | 0.00 | 0.00 | 0.00 | 82 | 1006.6 |
| 20260509131314 | 55 | 171 | 2.6 | 7.8 | 0.00 | 0.00 | 0.00 | 83 | 1006.7 |
| 20260509130832 | 55 | 207 | 2.6 | 7.8 | 0.00 | 0.00 | 0.00 | 83 | 1006.7 |
| 20260509130338 | 55 | 178 | 2.6 | 8.7 | 0.00 | 0.00 | 0.00 | 83 | 1006.7 |
| 20260509125830 | 55 | 174 | 1.7 | 8.7 | 0.00 | 0.00 | 0.00 | 84 | 1006.7 |
| 20260509125352 | 54 | 194 | 2.6 | 8.7 | 0.00 | 0.00 | 0.00 | 84 | 1006.8 |
| 20260509124819 | 54 | 175 | 4.3 | 8.7 | 0.00 | 0.00 | 0.00 | 84 | 1007.0 |
| 20260509124322 | 54 | 171 | 2.6 | 7.0 | 0.00 | 0.00 | 0.00 | 85 | 1007.0 |
| 20260509123820 | 54 | 157 | 2.6 | 8.7 | 0.00 | 0.00 | 0.00 | 85 | 1007.0 |
| 20260509123339 | 54 | 121 | 3.5 | 8.7 | 0.00 | 0.00 | 0.00 | 85 | 1007.0 |
| 20260509122815 | 54 | 213 | 3.5 | 8.7 | 0.00 | 0.00 | 0.00 | 85 | 1007.1 |
| 20260509122318 | 54 | 180 | 2.6 | 7.8 | 0.00 | 0.00 | 0.00 | 85 | 1007.1 |
| 20260509121833 | 54 | 187 | 2.6 | 7.8 | 0.00 | 0.00 | 0.00 | 85 | 1007.1 |
| 20260509121313 | 54 | 164 | 3.5 | 7.8 | 0.00 | 0.00 | 0.00 | 85 | 1007.2 |
| 20260509120818 | 54 | 191 | 1.7 | 7.0 | 0.00 | 0.00 | 0.00 | 85 | 1007.1 |
| 20260509120321 | 54 | 171 | 2.6 | 8.7 | 0.00 | 0.00 | 0.00 | 86 | 1007.3 |
| 20260509115818 | 54 | 182 | 4.3 | 8.7 | 0.00 | 0.10 | 0.00 | 85 | 1007.3 |
| 20260509115319 | 54 | 171 | 2.6 | 6.1 | 0.00 | 0.10 | 0.00 | 86 | 1007.2 |
| 20260509114817 | 53 | 182 | 1.7 | 7.0 | 0.00 | 0.10 | 0.00 | 86 | 1007.2 |
| 20260509114321 | 53 | 143 | 1.7 | 7.0 | 0.00 | 0.10 | 0.00 | 86 | 1007.1 |
| 20260509113817 | 53 | 170 | 1.7 | 7.0 | 0.00 | 0.10 | 0.00 | 86 | 1007.2 |
| 20260509113339 | 53 | 201 | 2.6 | 7.0 | 0.00 | 0.10 | 0.00 | 86 | 1007.1 |
| 20260509112815 | 53 | 203 | 2.6 | 7.0 | 0.00 | 0.10 | 0.00 | 86 | 1007.0 |
| 20260509112339 | 53 | 148 | 2.6 | 6.1 | 0.00 | 0.10 | 0.00 | 87 | 1007.0 |
| 20260509111831 | 53 | 175 | 2.6 | 9.6 | 0.00 | 0.10 | 0.00 | 87 | 1007.0 |
| 20260509111354 | 53 | 182 | 2.6 | 9.6 | 0.00 | 0.10 | 0.00 | 87 | 1007.0 |
| 20260509110825 | 52 | 150 | 1.7 | 5.2 | 0.00 | 0.10 | 0.00 | 87 | 1007.0 |
| 20260509110328 | 52 | 115 | 0.9 | 5.2 | 0.00 | 0.10 | 0.00 | 88 | 1007.1 |
| 20260509105842 | 52 | 176 | 1.7 | 4.3 | 0.00 | 0.12 | 0.00 | 88 | 1007.0 |
| 20260509105318 | 52 | 178 | 2.6 | 4.3 | 0.00 | 0.12 | 0.00 | 88 | 1007.0 |
| 20260509104817 | 52 | 140 | 1.7 | 3.5 | 0.00 | 0.12 | 0.00 | 88 | 1007.0 |
| 20260509104340 | 52 | 141 | 1.7 | 5.2 | 0.00 | 0.12 | 0.00 | 88 | 1007.1 |
| 20260509103857 | 52 | 132 | 3.5 | 5.2 | 0.00 | 0.12 | 0.00 | 87 | 1007.1 |
| 20260509103318 | 52 | 169 | 2.6 | 6.1 | 0.00 | 0.12 | 0.00 | 87 | 1007.1 |
| 20260509102815 | 52 | 196 | 1.7 | 6.1 | 0.00 | 0.12 | 0.00 | 87 | 1007.1 |
| 20260509102339 | 52 | 180 | 0.9 | 2.6 | 0.00 | 0.12 | 0.00 | 87 | 1007.1 |
| 20260509101831 | 52 | 185 | 1.7 | 5.2 | 0.00 | 0.12 | 0.00 | 87 | 1007.1 |
| 20260509101334 | 52 | 185 | 1.7 | 5.2 | 0.00 | 0.12 | 0.00 | 87 | 1007.1 |
| 20260509100821 | 52 | 186 | 2.6 | 5.2 | 0.00 | 0.12 | 0.00 | 87 | 1007.1 |
| 20260509100323 | 52 | 206 | 0.9 | 5.2 | 0.00 | 0.12 | 0.00 | 86 | 1007.3 |
| 20260509095841 | 52 | 140 | 1.7 | 7.0 | 0.00 | 0.19 | 0.00 | 86 | 1007.1 |
| 20260509095321 | 52 | 173 | 3.5 | 7.0 | 0.00 | 0.19 | 0.00 | 87 | 1007.2 |
| 20260509094837 | 52 | 221 | 1.7 | 5.2 | 0.00 | 0.19 | 0.00 | 86 | 1007.2 |
| 20260509094339 | 53 | 165 | 0.9 | 5.2 | 0.00 | 0.19 | 0.00 | 86 | 1007.2 |
| 20260509093852 | 53 | 188 | 1.7 | 5.2 | 0.00 | 0.19 | 0.00 | 86 | 1007.2 |
| 20260509093336 | 53 | 194 | 1.7 | 5.2 | 0.00 | 0.19 | 0.00 | 86 | 1007.2 |
| 20260509092828 | 53 | 189 | 1.7 | 4.3 | 0.00 | 0.19 | 0.00 | 86 | 1007.3 |
| 20260509092333 | 53 | 221 | 1.7 | 4.3 | 0.00 | 0.19 | 0.00 | 86 | 1007.3 |
| 20260509091823 | 53 | 175 | 2.6 | 5.2 | 0.00 | 0.19 | 0.00 | 86 | 1007.4 |
| 20260509091347 | 53 | 185 | 1.7 | 5.2 | 0.00 | 0.19 | 0.00 | 86 | 1007.3 |
| 20260509090839 | 53 | 200 | 0.9 | 2.6 | 0.00 | 0.19 | 0.00 | 86 | 1007.3 |
| 20260509090320 | 53 | 207 | 0.9 | 3.5 | 0.00 | 0.19 | 0.00 | 86 | 1007.4 |
| 20260509085836 | 53 | 208 | 0.9 | 3.5 | 0.00 | 0.19 | 0.00 | 86 | 1007.4 |
| 20260509085318 | 53 | 208 | 0.0 | 3.5 | 0.00 | 0.19 | 0.00 | 86 | 1007.4 |
| 20260509084831 | 53 | 208 | 0.9 | 3.5 | 0.00 | 0.19 | 0.00 | 86 | 1007.5 |
| 20260509084335 | 53 | 213 | 0.0 | 4.3 | 0.00 | 0.19 | 0.00 | 86 | 1007.4 |
| 20260509083824 | 53 | 188 | 0.9 | 5.2 | 0.00 | 0.19 | 0.00 | 85 | 1007.4 |
| 20260509083327 | 53 | 188 | 1.7 | 5.2 | 0.00 | 0.19 | 0.00 | 86 | 1007.4 |
| 20260509082827 | 53 | 180 | 1.7 | 4.3 | 0.00 | 0.19 | 0.00 | 86 | 1007.4 |
| 20260509082330 | 53 | 182 | 1.7 | 6.1 | 0.00 | 0.19 | 0.00 | 86 | 1007.4 |
| 20260509081822 | 53 | 181 | 2.6 | 6.1 | 0.00 | 0.19 | 0.00 | 86 | 1007.4 |
| 20260509081341 | 53 | 188 | 0.9 | 4.3 | 0.00 | 0.19 | 0.00 | 86 | 1007.5 |
| 20260509080815 | 53 | 190 | 0.9 | 2.6 | 0.00 | 0.19 | 0.00 | 85 | 1007.4 |
| 20260509080339 | 53 | 162 | 0.9 | 4.3 | 0.00 | 0.19 | 0.00 | 85 | 1007.4 |
| 20260509075830 | 53 | 157 | 1.7 | 4.3 | 0.00 | 0.19 | 0.00 | 85 | 1007.5 |
| 20260509075334 | 53 | 172 | 1.7 | 4.3 | 0.00 | 0.19 | 0.00 | 85 | 1007.6 |
| 20260509074826 | 53 | 181 | 0.9 | 4.3 | 0.00 | 0.19 | 0.00 | 85 | 1007.6 |
| 20260509074345 | 53 | 179 | 1.7 | 4.3 | 0.00 | 0.19 | 0.00 | 85 | 1007.6 |
| 20260509073819 | 53 | 179 | 0.9 | 6.1 | 0.00 | 0.19 | 0.00 | 85 | 1007.7 |
| 20260509073319 | 53 | 191 | 1.7 | 6.1 | 0.00 | 0.19 | 0.00 | 85 | 1007.6 |
| 20260509072832 | 53 | 173 | 0.9 | 3.5 | 0.00 | 0.19 | 0.00 | 85 | 1007.6 |
| 20260509072336 | 53 | 168 | 2.6 | 3.5 | 0.00 | 0.19 | 0.00 | 85 | 1007.7 |
| 20260509071828 | 53 | 207 | 0.0 | 2.6 | 0.00 | 0.19 | 0.00 | 85 | 1007.8 |
| 20260509071332 | 53 | 210 | 0.9 | 3.5 | 0.00 | 0.19 | 0.00 | 85 | 1007.8 |
| 20260509070844 | 53 | 198 | 0.9 | 6.1 | 0.00 | 0.19 | 0.00 | 85 | 1007.7 |
| 20260509070326 | 53 | 142 | 1.7 | 6.1 | 0.00 | 0.19 | 0.00 | 85 | 1007.8 |
| 20260509065819 | 53 | 123 | 2.6 | 5.2 | 0.00 | 0.19 | 0.00 | 84 | 1007.7 |
| 20260509065340 | 53 | 148 | 2.6 | 4.3 | 0.00 | 0.19 | 0.00 | 84 | 1007.8 |
| 20260509064832 | 53 | 222 | 0.9 | 4.3 | 0.00 | 0.19 | 0.00 | 84 | 1007.9 |
| 20260509064316 | 53 | 150 | 1.7 | 5.2 | 0.00 | 0.19 | 0.00 | 84 | 1008.0 |
| 20260509063816 | 53 | 163 | 2.6 | 5.2 | 0.00 | 0.19 | 0.00 | 84 | 1008.0 |
| 20260509063319 | 53 | 153 | 1.7 | 5.2 | 0.00 | 0.19 | 0.00 | 84 | 1008.1 |
| 20260509062816 | 53 | 151 | 1.7 | 6.1 | 0.00 | 0.19 | 0.00 | 83 | 1008.1 |
| 20260509062341 | 53 | 182 | 1.7 | 6.1 | 0.00 | 0.19 | 0.00 | 83 | 1008.2 |
| 20260509061832 | 53 | 185 | 0.9 | 4.3 | 0.00 | 0.19 | 0.00 | 83 | 1008.3 |
| 20260509061337 | 53 | 181 | 1.7 | 5.2 | 0.00 | 0.19 | 0.00 | 83 | 1008.2 |
| 20260509060829 | 53 | 173 | 1.7 | 5.2 | 0.00 | 0.19 | 0.00 | 83 | 1008.4 |
| 20260509060326 | 53 | 176 | 3.5 | 7.0 | 0.00 | 0.19 | 0.00 | 83 | 1008.3 |
| 20260509055845 | 53 | 185 | 1.7 | 7.0 | 0.00 | 0.19 | 0.00 | 83 | 1008.5 |
| 20260509055327 | 53 | 159 | 1.7 | 8.7 | 0.00 | 0.19 | 0.00 | 83 | 1008.6 |
| 20260509054820 | 53 | 202 | 2.6 | 8.7 | 0.00 | 0.19 | 0.00 | 83 | 1008.7 |
| 20260509054320 | 52 | 157 | 2.6 | 7.8 | 0.00 | 0.19 | 0.00 | 83 | 1008.8 |
| 20260509053815 | 53 | 178 | 1.7 | 7.8 | 0.00 | 0.19 | 0.00 | 83 | 1008.8 |
| 20260509053318 | 53 | 200 | 2.6 | 7.8 | 0.00 | 0.19 | 0.00 | 83 | 1008.8 |
| 20260509052856 | 53 | 140 | 1.7 | 6.1 | 0.00 | 0.19 | 0.00 | 83 | 1008.8 |
| 20260509052318 | 53 | 174 | 1.7 | 6.1 | 0.00 | 0.19 | 0.00 | 82 | 1008.8 |
| 20260509051817 | 53 | 200 | 3.5 | 7.8 | 0.00 | 0.19 | 0.00 | 83 | 1008.9 |
| 20260509051317 | 53 | 131 | 1.7 | 5.2 | 0.00 | 0.19 | 0.00 | 83 | 1009.0 |
| 20260509050835 | 53 | 171 | 2.6 | 6.1 | 0.00 | 0.19 | 0.00 | 83 | 1009.1 |
| 20260509050337 | 53 | 171 | 3.5 | 7.8 | 0.00 | 0.19 | 0.00 | 82 | 1009.1 |
| 20260509045849 | 53 | 170 | 2.6 | 5.2 | 0.00 | 0.19 | 0.00 | 82 | 1009.1 |
| 20260509045313 | 52 | 178 | 2.6 | 7.0 | 0.00 | 0.19 | 0.00 | 82 | 1009.2 |
| 20260509044833 | 52 | 178 | 2.6 | 5.2 | 0.00 | 0.19 | 0.00 | 82 | 1009.1 |
| 20260509044335 | 52 | 226 | 1.7 | 4.3 | 0.00 | 0.19 | 0.00 | 81 | 1009.1 |
| 20260509043848 | 52 | 184 | 0.9 | 2.6 | 0.00 | 0.19 | 0.00 | 81 | 1009.2 |
| 20260509043332 | 52 | 184 | 0.0 | 4.3 | 0.00 | 0.19 | 0.00 | 80 | 1009.3 |
| 20260509042825 | 52 | 184 | 0.9 | 4.3 | 0.00 | 0.19 | 0.00 | 80 | 1009.4 |
| 20260509042324 | 52 | 193 | 0.9 | 5.2 | 0.00 | 0.19 | 0.00 | 80 | 1009.5 |
| 20260509041815 | 52 | 186 | 1.7 | 5.2 | 0.00 | 0.19 | 0.00 | 79 | 1009.6 |
| 20260509041340 | 52 | 193 | 0.9 | 5.2 | 0.00 | 0.19 | 0.00 | 79 | 1009.6 |
| 20260509040830 | 52 | 182 | 1.7 | 5.2 | 0.00 | 0.19 | 0.00 | 79 | 1009.6 |
| 20260509040331 | 52 | 188 | 1.7 | 4.3 | 0.00 | 0.19 | 0.00 | 78 | 1009.6 |
| 20260509035816 | 52 | 190 | 2.6 | 6.1 | 0.00 | 0.19 | 0.19 | 78 | 1009.6 |
| 20260509035339 | 53 | 260 | 1.7 | 4.3 | 0.00 | 0.19 | 0.19 | 77 | 1009.6 |
| 20260509034837 | 53 | 188 | 1.7 | 4.3 | 0.00 | 0.19 | 0.19 | 75 | 1009.7 |
| 20260509034320 | 53 | 184 | 1.7 | 3.5 | 0.00 | 0.19 | 0.19 | 75 | 1009.6 |